sensor_id;sensor_type;location;lat;lon;timestamp;temperature;humidity
1888;DHT22;944;51.574;6.980;2024-03-07T06:02:22;2.70;1.00
1888;DHT22;944;51.574;6.980;2024-03-07T06:04:49;2.80;1.00
1888;DHT22;944;51.574;6.980;2024-03-07T07:56:09;4.80;99.90
1888;DHT22;944;51.574;6.980;2024-03-07T07:58:40;5.00;99.90
1888;DHT22;944;51.574;6.980;2024-03-07T08:01:07;5.10;99.90
1888;DHT22;944;51.574;6.980;2024-03-07T08:03:35;5.30;99.90
1888;DHT22;944;51.574;6.980;2024-03-07T08:09:47;5.60;99.90
1888;DHT22;944;51.574;6.980;2024-03-07T08:12:16;5.80;99.90
1888;DHT22;944;51.574;6.980;2024-03-07T08:14:43;5.80;99.90
1888;DHT22;944;51.574;6.980;2024-03-07T08:20:51;6.00;99.90
1888;DHT22;944;51.574;6.980;2024-03-07T08:23:18;6.00;99.90
1888;DHT22;944;51.574;6.980;2024-03-07T08:25:50;6.10;99.90
1888;DHT22;944;51.574;6.980;2024-03-07T08:35:08;6.70;99.90
1888;DHT22;944;51.574;6.980;2024-03-07T08:37:37;6.80;99.90
1888;DHT22;944;51.574;6.980;2024-03-07T08:43:51;6.80;99.90
1888;DHT22;944;51.574;6.980;2024-03-07T08:46:27;6.70;99.90
1888;DHT22;944;51.574;6.980;2024-03-07T08:48:54;6.70;99.90
1888;DHT22;944;51.574;6.980;2024-03-07T08:51:23;6.70;99.90
1888;DHT22;944;51.574;6.980;2024-03-07T08:54:21;6.60;99.90
1888;DHT22;944;51.574;6.980;2024-03-07T08:56:48;6.60;99.90
1888;DHT22;944;51.574;6.980;2024-03-07T08:59:15;6.40;99.90
1888;DHT22;944;51.574;6.980;2024-03-07T09:01:44;6.20;99.90
1888;DHT22;944;51.574;6.980;2024-03-07T09:04:11;6.10;99.90
1888;DHT22;944;51.574;6.980;2024-03-07T09:06:40;6.10;99.90
1888;DHT22;944;51.574;6.980;2024-03-07T09:09:07;5.90;99.90
1888;DHT22;944;51.574;6.980;2024-03-07T09:11:34;5.80;99.90
1888;DHT22;944;51.574;6.980;2024-03-07T09:14:02;5.70;99.90
1888;DHT22;944;51.574;6.980;2024-03-07T09:16:32;5.60;99.90
1888;DHT22;944;51.574;6.980;2024-03-07T09:19:04;5.60;99.90
1888;DHT22;944;51.574;6.980;2024-03-07T09:21:34;5.60;99.90
1888;DHT22;944;51.574;6.980;2024-03-07T09:24:02;5.70;99.90
1888;DHT22;944;51.574;6.980;2024-03-07T09:26:30;5.50;99.90
1888;DHT22;944;51.574;6.980;2024-03-07T09:28:59;5.60;99.90
1888;DHT22;944;51.574;6.980;2024-03-07T09:31:31;5.60;99.90
1888;DHT22;944;51.574;6.980;2024-03-07T09:33:58;5.50;99.90
1888;DHT22;944;51.574;6.980;2024-03-07T09:36:27;5.70;99.90
1888;DHT22;944;51.574;6.980;2024-03-07T09:38:54;5.80;99.90
1888;DHT22;944;51.574;6.980;2024-03-07T09:41:26;5.80;99.90
1888;DHT22;944;51.574;6.980;2024-03-07T09:43:56;5.80;99.90
1888;DHT22;944;51.574;6.980;2024-03-07T09:46:24;5.90;99.90
1888;DHT22;944;51.574;6.980;2024-03-07T09:48:53;6.00;99.90
1888;DHT22;944;51.574;6.980;2024-03-07T09:51:20;6.10;99.90
1888;DHT22;944;51.574;6.980;2024-03-07T09:53:49;6.10;99.90
1888;DHT22;944;51.574;6.980;2024-03-07T09:56:21;5.90;99.90
1888;DHT22;944;51.574;6.980;2024-03-07T09:58:51;6.00;99.90
1888;DHT22;944;51.574;6.980;2024-03-07T10:01:32;6.10;99.90
1888;DHT22;944;51.574;6.980;2024-03-07T10:23:02;6.90;99.90
1888;DHT22;944;51.574;6.980;2024-03-07T10:26:14;7.10;99.90
1888;DHT22;944;51.574;6.980;2024-03-07T10:43:52;6.70;99.90
1888;DHT22;944;51.574;6.980;2024-03-07T10:46:29;6.80;99.90
1888;DHT22;944;51.574;6.980;2024-03-07T10:49:01;6.90;99.90
1888;DHT22;944;51.574;6.980;2024-03-07T10:51:40;6.70;99.90
1888;DHT22;944;51.574;6.980;2024-03-07T10:54:24;6.80;99.90
1888;DHT22;944;51.574;6.980;2024-03-07T10:57:26;6.90;99.90
1888;DHT22;944;51.574;6.980;2024-03-07T11:00:16;7.20;99.90
1888;DHT22;944;51.574;6.980;2024-03-07T11:03:02;7.00;99.90
1888;DHT22;944;51.574;6.980;2024-03-07T11:05:39;7.00;99.90
1888;DHT22;944;51.574;6.980;2024-03-07T11:08:19;7.10;99.90
1888;DHT22;944;51.574;6.980;2024-03-07T11:11:07;7.10;99.90
1888;DHT22;944;51.574;6.980;2024-03-07T11:13:35;7.10;99.90
1888;DHT22;944;51.574;6.980;2024-03-07T11:16:06;7.20;99.90
1888;DHT22;944;51.574;6.980;2024-03-07T11:18:40;7.30;99.90
1888;DHT22;944;51.574;6.980;2024-03-07T11:21:41;7.50;99.90
1888;DHT22;944;51.574;6.980;2024-03-07T11:24:28;7.50;99.90
1888;DHT22;944;51.574;6.980;2024-03-07T11:27:05;7.70;99.90
1888;DHT22;944;51.574;6.980;2024-03-07T11:29:50;7.80;99.90
1888;DHT22;944;51.574;6.980;2024-03-07T11:32:24;7.80;99.90
1888;DHT22;944;51.574;6.980;2024-03-07T11:35:11;7.70;99.90
1888;DHT22;944;51.574;6.980;2024-03-07T11:41:37;7.60;99.90
1888;DHT22;944;51.574;6.980;2024-03-07T11:44:07;7.70;99.90
1888;DHT22;944;51.574;6.980;2024-03-07T11:46:39;7.80;99.90
1888;DHT22;944;51.574;6.980;2024-03-07T11:49:10;7.70;99.90
1888;DHT22;944;51.574;6.980;2024-03-07T11:51:41;7.70;99.90
1888;DHT22;944;51.574;6.980;2024-03-07T11:54:09;7.70;99.90
1888;DHT22;944;51.574;6.980;2024-03-07T11:56:42;7.70;99.90
1888;DHT22;944;51.574;6.980;2024-03-07T11:59:10;7.60;99.90
1888;DHT22;944;51.574;6.980;2024-03-07T12:01:38;7.70;99.90
1888;DHT22;944;51.574;6.980;2024-03-07T12:04:09;7.60;99.90
1888;DHT22;944;51.574;6.980;2024-03-07T12:06:54;7.70;99.90
1888;DHT22;944;51.574;6.980;2024-03-07T12:09:21;7.70;99.90
1888;DHT22;944;51.574;6.980;2024-03-07T12:11:50;7.80;99.90
1888;DHT22;944;51.574;6.980;2024-03-07T12:14:18;7.80;99.90
1888;DHT22;944;51.574;6.980;2024-03-07T12:16:47;7.70;99.90
1888;DHT22;944;51.574;6.980;2024-03-07T12:19:16;7.70;99.90
1888;DHT22;944;51.574;6.980;2024-03-07T12:21:47;7.70;99.90
1888;DHT22;944;51.574;6.980;2024-03-07T12:28:00;7.70;99.90
1888;DHT22;944;51.574;6.980;2024-03-07T12:30:32;7.70;99.90
1888;DHT22;944;51.574;6.980;2024-03-07T12:33:01;7.50;99.90
1888;DHT22;944;51.574;6.980;2024-03-07T12:35:34;7.70;99.90
1888;DHT22;944;51.574;6.980;2024-03-07T12:38:01;7.70;99.90
1888;DHT22;944;51.574;6.980;2024-03-07T12:40:29;7.80;99.90
1888;DHT22;944;51.574;6.980;2024-03-07T12:42:59;8.10;99.90
1888;DHT22;944;51.574;6.980;2024-03-07T12:45:29;8.10;99.90
1888;DHT22;944;51.574;6.980;2024-03-07T12:48:00;8.20;99.90
1888;DHT22;944;51.574;6.980;2024-03-07T12:50:30;8.30;99.90
1888;DHT22;944;51.574;6.980;2024-03-07T12:53:01;8.20;99.90
1888;DHT22;944;51.574;6.980;2024-03-07T12:59:12;8.00;99.90
1888;DHT22;944;51.574;6.980;2024-03-07T13:01:39;8.10;99.90
1888;DHT22;944;51.574;6.980;2024-03-07T13:04:10;8.10;99.90
1888;DHT22;944;51.574;6.980;2024-03-07T13:06:42;8.20;99.90
1888;DHT22;944;51.574;6.980;2024-03-07T13:09:16;8.40;99.90
1888;DHT22;944;51.574;6.980;2024-03-07T13:11:52;8.40;99.90
1888;DHT22;944;51.574;6.980;2024-03-07T13:14:19;8.60;99.90
1888;DHT22;944;51.574;6.980;2024-03-07T13:16:49;8.70;99.90
1888;DHT22;944;51.574;6.980;2024-03-07T13:19:21;8.70;99.90
1888;DHT22;944;51.574;6.980;2024-03-07T13:29:00;8.50;99.90
1888;DHT22;944;51.574;6.980;2024-03-07T13:38:50;8.80;99.90
1888;DHT22;944;51.574;6.980;2024-03-07T13:41:47;9.00;99.90
1888;DHT22;944;51.574;6.980;2024-03-07T13:44:50;9.00;99.90
1888;DHT22;944;51.574;6.980;2024-03-07T13:47:55;9.10;99.90
1888;DHT22;944;51.574;6.980;2024-03-07T13:51:08;9.00;99.90
1888;DHT22;944;51.574;6.980;2024-03-07T13:54:15;9.00;99.90
1888;DHT22;944;51.574;6.980;2024-03-07T14:22:21;9.30;99.90
1888;DHT22;944;51.574;6.980;2024-03-07T15:18:24;9.20;99.90
1888;DHT22;944;51.574;6.980;2024-03-07T15:21:25;9.20;99.90
1888;DHT22;944;51.574;6.980;2024-03-07T15:23:52;9.10;99.90
1888;DHT22;944;51.574;6.980;2024-03-07T15:26:35;9.00;99.90
1888;DHT22;944;51.574;6.980;2024-03-07T15:29:35;9.10;99.90
1888;DHT22;944;51.574;6.980;2024-03-07T15:32:02;9.00;99.90
1888;DHT22;944;51.574;6.980;2024-03-07T15:34:34;8.90;99.90
1888;DHT22;944;51.574;6.980;2024-03-07T15:37:03;8.90;99.90
1888;DHT22;944;51.574;6.980;2024-03-07T15:43:13;8.80;99.90
1888;DHT22;944;51.574;6.980;2024-03-07T15:45:45;8.60;99.90
1888;DHT22;944;51.574;6.980;2024-03-07T15:49:09;8.90;99.90
1888;DHT22;944;51.574;6.980;2024-03-07T15:59:06;8.50;99.90
1888;DHT22;944;51.574;6.980;2024-03-07T16:01:36;8.40;99.90
1888;DHT22;944;51.574;6.980;2024-03-07T16:04:04;8.40;99.90
1888;DHT22;944;51.574;6.980;2024-03-07T16:06:36;8.30;99.90
1888;DHT22;944;51.574;6.980;2024-03-07T16:09:17;8.30;99.90
1888;DHT22;944;51.574;6.980;2024-03-07T16:11:56;8.20;99.90
1888;DHT22;944;51.574;6.980;2024-03-07T16:18:21;8.20;99.90
1888;DHT22;944;51.574;6.980;2024-03-07T16:21:08;8.20;99.90
1888;DHT22;944;51.574;6.980;2024-03-07T16:23:41;8.20;99.90
1888;DHT22;944;51.574;6.980;2024-03-07T16:26:18;8.10;99.90
1888;DHT22;944;51.574;6.980;2024-03-07T16:28:46;8.10;99.90
1888;DHT22;944;51.574;6.980;2024-03-07T16:31:16;7.90;99.90
1888;DHT22;944;51.574;6.980;2024-03-07T16:33:45;7.80;99.90
1888;DHT22;944;51.574;6.980;2024-03-07T16:36:12;7.80;99.90
1888;DHT22;944;51.574;6.980;2024-03-07T16:38:50;7.70;99.90
1888;DHT22;944;51.574;6.980;2024-03-07T16:41:18;7.70;99.90
1888;DHT22;944;51.574;6.980;2024-03-07T16:43:46;7.70;99.90
1888;DHT22;944;51.574;6.980;2024-03-07T16:46:13;7.60;99.90
1888;DHT22;944;51.574;6.980;2024-03-07T16:48:45;7.60;99.90
1888;DHT22;944;51.574;6.980;2024-03-07T16:51:13;7.60;99.90
1888;DHT22;944;51.574;6.980;2024-03-07T17:17:56;7.30;99.90
1888;DHT22;944;51.574;6.980;2024-03-07T18:05:12;6.60;99.90
1888;DHT22;944;51.574;6.980;2024-03-07T18:07:41;6.40;99.90
1888;DHT22;944;51.574;6.980;2024-03-07T18:10:13;6.40;99.90
1888;DHT22;944;51.574;6.980;2024-03-07T18:12:52;6.40;99.90
1888;DHT22;944;51.574;6.980;2024-03-07T18:15:49;6.40;99.90
1888;DHT22;944;51.574;6.980;2024-03-07T18:18:24;6.40;99.90
1888;DHT22;944;51.574;6.980;2024-03-07T18:21:01;6.30;99.90
1888;DHT22;944;51.574;6.980;2024-03-07T18:23:53;6.30;99.90
1888;DHT22;944;51.574;6.980;2024-03-07T18:26:30;6.40;99.90
1888;DHT22;944;51.574;6.980;2024-03-07T18:49:53;6.10;99.90
